createdAt,value
2023-06-30T00:00:23.805Z,38.31
2023-06-30T00:01:23.947Z,50.28
2023-06-30T00:02:23.881Z,58.08
2023-06-30T00:03:23.816Z,56.30
2023-06-30T00:04:23.942Z,60.80
2023-06-30T00:05:23.774Z,51.99
2023-06-30T00:06:23.752Z,49.96
2023-06-30T00:07:23.828Z,43.24
2023-06-30T00:08:23.746Z,42.76
2023-06-30T00:09:23.734Z,36.29
2023-06-30T00:10:23.736Z,46.76
2023-06-30T00:11:23.714Z,44.26
2023-06-30T00:12:23.731Z,52.79
2023-06-30T00:13:23.692Z,58.03
2023-06-30T00:14:23.694Z,54.50
2023-06-30T00:15:23.686Z,55.53
2023-06-30T00:16:23.819Z,52.13
2023-06-30T00:17:23.904Z,60.56
2023-06-30T00:18:23.656Z,44.72
2023-06-30T00:21:13.188Z,53.52
2023-06-30T00:22:13.187Z,50.55
2023-06-30T00:23:13.172Z,47.33
2023-06-30T00:24:13.171Z,56.94
2023-06-30T00:25:15.187Z,58.95
2023-06-30T00:26:13.156Z,45.69
2023-06-30T00:27:13.162Z,43.27
2023-06-30T00:28:13.138Z,41.65
2023-06-30T00:29:13.137Z,52.42
2023-06-30T00:30:13.170Z,56.13
2023-06-30T00:31:13.181Z,39.62
2023-06-30T00:32:13.107Z,53.18
2023-06-30T00:33:14.200Z,44.25
2023-06-30T00:34:14.185Z,42.16
2023-06-30T00:35:14.168Z,61.09
2023-06-30T00:36:14.192Z,46.00
2023-06-30T00:37:14.179Z,39.50
2023-06-30T00:38:14.184Z,41.19
2023-06-30T00:39:14.163Z,51.72
2023-06-30T00:40:14.133Z,51.78
2023-06-30T00:41:14.144Z,54.71
2023-06-30T00:42:14.117Z,43.62
2023-06-30T00:43:14.116Z,52.40
2023-06-30T00:44:14.121Z,46.66
2023-06-30T00:45:14.101Z,52.88
2023-06-30T00:46:14.099Z,41.77
2023-06-30T00:47:14.143Z,48.17
2023-06-30T00:48:14.089Z,57.02
2023-06-30T00:49:14.064Z,54.12
2023-06-30T00:50:14.045Z,52.78
2023-06-30T00:51:14.058Z,40.56
2023-06-30T00:52:14.062Z,55.39
2023-06-30T00:53:14.055Z,44.06
2023-06-30T00:54:14.018Z,43.63
2023-06-30T00:55:14.021Z,58.83
2023-06-30T00:56:14.012Z,57.96
2023-06-30T00:57:14.001Z,51.27
2023-06-30T00:58:14.006Z,43.68
2023-06-30T00:59:13.983Z,51.12
2023-06-30T01:00:13.980Z,58.03
2023-06-30T01:01:13.966Z,48.57
2023-06-30T01:02:13.960Z,51.07
2023-06-30T01:03:14.152Z,51.87
2023-06-30T01:04:13.982Z,45.04
2023-06-30T01:05:13.937Z,60.67
2023-06-30T01:06:14.644Z,51.05
2023-06-30T01:07:13.973Z,46.10
2023-06-30T01:08:13.914Z,54.19
2023-06-30T01:09:13.909Z,57.49
2023-06-30T01:10:13.894Z,39.93
2023-06-30T01:11:13.874Z,54.65
2023-06-30T01:12:13.883Z,47.88
2023-06-30T01:13:13.884Z,52.02
2023-06-30T01:14:13.864Z,46.13
2023-06-30T01:15:13.845Z,54.09
2023-06-30T01:16:13.866Z,59.03
2023-06-30T01:17:13.834Z,58.99
2023-06-30T01:18:13.836Z,47.42
2023-06-30T01:19:13.828Z,44.11
2023-06-30T01:20:13.808Z,52.13
2023-06-30T01:21:13.807Z,58.75
2023-06-30T01:22:13.820Z,54.34
2023-06-30T01:23:13.792Z,53.98
2023-06-30T01:24:13.773Z,58.85
2023-06-30T01:25:13.758Z,53.49
2023-06-30T01:26:13.828Z,55.30
2023-06-30T01:27:13.769Z,42.39
2023-06-30T01:28:13.731Z,52.23
2023-06-30T01:29:14.827Z,39.05
2023-06-30T01:30:13.738Z,45.86
2023-06-30T01:31:13.785Z,55.04
2023-06-30T01:32:13.696Z,39.25
2023-06-30T01:33:13.702Z,39.76
2023-06-30T01:34:13.692Z,43.83
2023-06-30T01:35:13.684Z,53.74
2023-06-30T01:36:14.672Z,50.28
2023-06-30T01:37:13.667Z,53.12
2023-06-30T01:38:13.661Z,46.14
2023-06-30T01:39:13.639Z,42.91
2023-06-30T01:40:13.659Z,41.57
2023-06-30T01:41:14.166Z,56.31
2023-06-30T01:42:13.648Z,52.45
2023-06-30T01:43:13.665Z,46.27
2023-06-30T01:44:13.618Z,41.95
2023-06-30T01:45:13.640Z,57.05
2023-06-30T01:46:13.615Z,40.50
2023-06-30T01:47:13.590Z,45.45
2023-06-30T01:48:13.576Z,56.16
2023-06-30T01:49:13.579Z,40.01
2023-06-30T01:50:13.555Z,43.95
2023-06-30T01:51:13.559Z,46.32
2023-06-30T01:52:13.546Z,51.86
2023-06-30T01:53:13.536Z,48.01
2023-06-30T01:54:13.534Z,46.56
2023-06-30T01:55:13.520Z,44.69
2023-06-30T01:56:13.520Z,53.30
2023-06-30T01:57:14.166Z,48.01
2023-06-30T01:58:13.506Z,53.33
2023-06-30T01:59:13.492Z,56.71
2023-06-30T02:00:13.500Z,48.81
2023-06-30T02:01:13.515Z,43.24
2023-06-30T02:02:13.458Z,42.75
2023-06-30T02:03:13.600Z,49.01
2023-06-30T02:04:13.441Z,54.35
2023-06-30T02:05:13.485Z,44.98
2023-06-30T02:06:13.434Z,49.73
2023-06-30T02:07:13.455Z,42.63
2023-06-30T02:08:13.418Z,55.58
2023-06-30T02:09:13.619Z,43.69
2023-06-30T02:10:13.425Z,52.43
2023-06-30T02:11:13.395Z,56.99
2023-06-30T02:12:13.414Z,54.85
2023-06-30T02:13:13.396Z,47.61
2023-06-30T02:14:13.374Z,46.31
2023-06-30T02:15:13.367Z,48.60
2023-06-30T02:16:13.408Z,46.11
2023-06-30T02:17:13.428Z,46.65
2023-06-30T02:18:13.355Z,49.28
2023-06-30T02:19:13.333Z,46.67
2023-06-30T02:20:13.329Z,50.97
2023-06-30T02:21:13.315Z,47.82
2023-06-30T02:22:13.299Z,41.46
2023-06-30T02:23:13.306Z,44.39
2023-06-30T02:24:13.294Z,52.79
2023-06-30T02:25:13.273Z,54.59
2023-06-30T02:26:14.115Z,43.90
2023-06-30T02:27:13.267Z,53.14
2023-06-30T02:28:13.282Z,49.04
2023-06-30T02:29:13.255Z,52.21
2023-06-30T02:30:13.250Z,52.76
2023-06-30T02:31:13.273Z,47.13
2023-06-30T02:32:13.252Z,47.12
2023-06-30T02:33:13.238Z,55.59
2023-06-30T02:34:13.214Z,55.25
2023-06-30T02:35:13.263Z,43.04
2023-06-30T02:36:13.188Z,55.28
2023-06-30T02:37:13.190Z,48.48
2023-06-30T02:38:13.176Z,45.10
2023-06-30T02:39:13.186Z,61.75
2023-06-30T02:40:13.153Z,54.76
2023-06-30T02:41:13.158Z,59.48
2023-06-30T02:42:13.149Z,55.51
2023-06-30T02:43:13.142Z,53.42
2023-06-30T02:44:14.097Z,53.84
2023-06-30T02:45:13.132Z,48.61
2023-06-30T02:46:13.181Z,52.21
2023-06-30T02:47:13.099Z,55.06
2023-06-30T02:48:13.099Z,57.79
2023-06-30T02:49:13.087Z,47.75
2023-06-30T02:50:13.072Z,60.75
2023-06-30T02:51:13.075Z,54.15
2023-06-30T02:52:13.055Z,46.29
2023-06-30T02:53:13.064Z,59.95
2023-06-30T02:54:13.034Z,56.22
2023-06-30T02:55:13.044Z,58.45
2023-06-30T02:56:13.026Z,59.94
2023-06-30T02:57:13.026Z,55.30
2023-06-30T02:58:13.085Z,51.14
2023-06-30T02:59:12.994Z,54.95
2023-06-30T03:00:12.994Z,47.41
2023-06-30T03:01:13.113Z,55.71
2023-06-30T03:02:13.088Z,50.82
2023-06-30T03:03:12.998Z,51.74
2023-06-30T03:04:13.003Z,60.07
2023-06-30T03:05:12.957Z,61.66
2023-06-30T03:06:12.937Z,59.58
2023-06-30T03:07:12.995Z,56.82
2023-06-30T03:08:12.954Z,60.51
2023-06-30T03:09:12.925Z,58.03
2023-06-30T03:10:12.910Z,55.14
2023-06-30T03:11:12.906Z,58.57
2023-06-30T03:12:12.888Z,64.42
2023-06-30T03:13:12.897Z,54.81
2023-06-30T03:14:12.888Z,59.55
2023-06-30T03:15:12.883Z,55.95
2023-06-30T03:16:12.861Z,52.60
2023-06-30T03:17:12.897Z,62.84
2023-06-30T03:18:12.854Z,60.84
2023-06-30T03:19:12.831Z,57.34
2023-06-30T03:20:13.067Z,59.54
2023-06-30T03:21:12.815Z,54.92
2023-06-30T03:22:12.826Z,51.62
2023-06-30T03:23:12.802Z,58.18
2023-06-30T03:24:12.799Z,55.61
2023-06-30T03:25:12.786Z,56.95
2023-06-30T03:26:12.770Z,58.23
2023-06-30T03:27:12.781Z,60.88
2023-06-30T03:28:12.783Z,58.01
2023-06-30T03:29:12.772Z,52.76
2023-06-30T03:30:12.750Z,62.34
2023-06-30T03:31:12.780Z,57.46
2023-06-30T03:32:12.739Z,60.71
2023-06-30T03:33:12.729Z,62.06
2023-06-30T03:34:12.722Z,58.91
2023-06-30T03:35:12.711Z,60.22
2023-06-30T03:36:12.707Z,64.38
2023-06-30T03:37:12.701Z,61.89
2023-06-30T03:38:12.690Z,64.36
2023-06-30T03:39:12.680Z,58.00
2023-06-30T03:40:12.666Z,63.44
2023-06-30T03:41:12.702Z,60.20
2023-06-30T03:42:12.651Z,61.53
2023-06-30T03:43:12.645Z,57.92
2023-06-30T03:44:12.661Z,58.40
2023-06-30T03:45:12.663Z,61.58
2023-06-30T03:46:12.728Z,52.83
2023-06-30T03:47:12.607Z,56.39
2023-06-30T03:48:12.599Z,63.37
2023-06-30T03:49:13.112Z,60.60
2023-06-30T03:50:12.606Z,62.22
2023-06-30T03:51:13.585Z,63.35
2023-06-30T03:52:12.579Z,62.92
2023-06-30T03:53:12.565Z,60.66
2023-06-30T03:54:12.573Z,65.33
2023-06-30T03:55:12.543Z,55.80
2023-06-30T03:56:12.530Z,57.74
2023-06-30T03:57:12.535Z,62.29
2023-06-30T03:58:12.534Z,56.69
2023-06-30T03:59:12.545Z,64.15
2023-06-30T04:00:12.501Z,63.25
2023-06-30T04:01:13.512Z,60.58
2023-06-30T04:02:12.493Z,61.64
2023-06-30T04:03:12.599Z,61.67
2023-06-30T04:04:12.646Z,61.43
2023-06-30T04:05:12.502Z,62.59
2023-06-30T04:06:12.500Z,60.38
2023-06-30T04:07:12.563Z,63.76
2023-06-30T04:08:12.520Z,64.39
2023-06-30T04:09:12.447Z,64.26
2023-06-30T04:10:12.438Z,59.01
2023-06-30T04:11:12.419Z,63.97
2023-06-30T04:12:12.445Z,64.63
2023-06-30T04:13:12.406Z,65.19
2023-06-30T04:14:12.422Z,63.58
2023-06-30T04:15:12.395Z,60.72
2023-06-30T04:16:12.402Z,60.74
2023-06-30T04:17:12.403Z,67.23
2023-06-30T04:18:12.366Z,63.81
2023-06-30T04:19:12.705Z,67.04
2023-06-30T04:20:12.355Z,65.09
2023-06-30T04:21:12.344Z,62.85
2023-06-30T04:22:12.335Z,64.44
2023-06-30T04:23:12.330Z,62.32
2023-06-30T04:24:12.323Z,62.50
2023-06-30T04:25:12.338Z,62.96
2023-06-30T04:26:12.333Z,67.34
2023-06-30T04:27:12.341Z,62.79
2023-06-30T04:28:12.291Z,62.96
2023-06-30T04:29:13.146Z,63.73
2023-06-30T04:30:12.254Z,64.74
2023-06-30T04:31:13.161Z,63.23
2023-06-30T04:32:13.210Z,69.76
2023-06-30T04:33:12.258Z,65.11
2023-06-30T04:34:12.230Z,67.37
2023-06-30T04:35:12.235Z,66.92
2023-06-30T04:36:12.251Z,66.75
2023-06-30T04:37:12.220Z,63.03
2023-06-30T04:38:12.206Z,65.59
2023-06-30T04:39:13.155Z,68.36
2023-06-30T04:40:12.204Z,62.77
2023-06-30T04:41:12.177Z,64.11
2023-06-30T04:42:12.260Z,64.63
2023-06-30T04:43:13.145Z,63.05
2023-06-30T04:44:12.157Z,68.67
2023-06-30T04:45:12.162Z,65.90
2023-06-30T04:46:12.209Z,64.67
2023-06-30T04:47:12.148Z,66.66
2023-06-30T04:48:12.225Z,65.37
2023-06-30T04:49:12.130Z,69.99
2023-06-30T04:50:12.649Z,67.93
2023-06-30T04:51:12.101Z,68.73
2023-06-30T04:52:12.093Z,64.13
2023-06-30T04:53:12.117Z,69.29
2023-06-30T04:54:12.090Z,66.15
2023-06-30T04:55:12.069Z,67.88
2023-06-30T04:56:12.065Z,67.62
2023-06-30T04:57:12.651Z,64.74
2023-06-30T04:58:12.720Z,64.30
2023-06-30T04:59:12.032Z,65.86
2023-06-30T05:00:12.039Z,67.70
2023-06-30T05:01:12.058Z,66.94
2023-06-30T05:02:12.007Z,65.42
2023-06-30T05:03:12.131Z,68.52
2023-06-30T05:04:11.998Z,68.26
2023-06-30T05:05:11.984Z,67.19
2023-06-30T05:06:12.660Z,64.17
2023-06-30T05:07:11.973Z,68.47
2023-06-30T05:08:11.959Z,68.26
2023-06-30T05:09:11.994Z,66.04
2023-06-30T05:10:11.942Z,64.01
2023-06-30T05:11:11.938Z,65.35
2023-06-30T05:12:11.930Z,68.35
2023-06-30T05:13:11.916Z,66.35
2023-06-30T05:14:11.930Z,67.38
2023-06-30T05:15:11.922Z,64.64
2023-06-30T05:16:11.925Z,65.58
2023-06-30T05:17:12.814Z,68.13
2023-06-30T05:18:11.971Z,65.89
2023-06-30T05:19:12.741Z,66.99
2023-06-30T05:20:11.883Z,67.46
2023-06-30T05:21:11.904Z,68.58
2023-06-30T05:22:11.851Z,65.11
2023-06-30T05:23:11.884Z,67.20
2023-06-30T05:24:11.837Z,67.16
2023-06-30T05:25:12.619Z,69.54
2023-06-30T05:26:11.809Z,67.97
2023-06-30T05:27:11.853Z,67.42
2023-06-30T05:28:11.834Z,66.60
2023-06-30T05:29:11.831Z,65.02
2023-06-30T05:30:11.851Z,68.09
2023-06-30T05:31:12.697Z,67.31
2023-06-30T05:32:11.785Z,68.19
2023-06-30T05:33:11.762Z,66.03
2023-06-30T05:34:11.762Z,67.48
2023-06-30T05:35:11.765Z,66.82
2023-06-30T05:36:11.735Z,68.15
2023-06-30T05:37:11.744Z,67.94
2023-06-30T05:38:11.717Z,67.30
2023-06-30T05:39:11.723Z,69.02
2023-06-30T05:40:11.722Z,67.67
2023-06-30T05:41:11.708Z,66.25
2023-06-30T05:42:11.688Z,68.37
2023-06-30T05:43:11.675Z,67.47
2023-06-30T05:44:11.685Z,67.58
2023-06-30T05:45:11.647Z,66.91
2023-06-30T05:46:11.725Z,64.92
2023-06-30T05:47:11.642Z,67.11
2023-06-30T05:48:11.641Z,66.35
2023-06-30T05:49:11.685Z,64.39
2023-06-30T05:50:11.626Z,67.29
2023-06-30T05:51:11.651Z,66.37
2023-06-30T05:52:11.599Z,65.56
2023-06-30T05:53:11.595Z,67.04
2023-06-30T05:54:11.585Z,69.07
2023-06-30T05:55:11.566Z,65.85
2023-06-30T05:56:12.250Z,66.01
2023-06-30T05:57:11.557Z,66.03
2023-06-30T05:58:11.551Z,64.88
2023-06-30T05:59:11.595Z,67.79
2023-06-30T06:00:11.538Z,67.63
2023-06-30T06:01:11.527Z,67.97
2023-06-30T06:02:11.525Z,66.11
2023-06-30T06:03:11.841Z,66.21
2023-06-30T06:04:11.862Z,65.12
2023-06-30T06:05:12.326Z,66.11
2023-06-30T06:06:11.490Z,63.34
2023-06-30T06:07:11.538Z,63.30
2023-06-30T06:08:11.479Z,66.85
2023-06-30T06:09:11.465Z,65.70
2023-06-30T06:10:11.460Z,69.21
2023-06-30T06:11:11.474Z,64.09
2023-06-30T06:12:11.448Z,64.41
2023-06-30T06:13:11.496Z,63.57
2023-06-30T06:14:11.492Z,66.33
2023-06-30T06:15:11.421Z,69.01
2023-06-30T06:16:12.231Z,66.54
2023-06-30T06:17:11.445Z,65.29
2023-06-30T06:18:11.443Z,64.45
2023-06-30T06:19:11.412Z,66.37
2023-06-30T06:20:11.407Z,67.84
2023-06-30T06:21:11.369Z,66.73
2023-06-30T06:22:11.385Z,63.10
2023-06-30T06:23:11.370Z,64.28
2023-06-30T06:24:12.257Z,63.92
2023-06-30T06:25:11.361Z,65.42
2023-06-30T06:26:12.251Z,64.61
2023-06-30T06:27:11.335Z,65.45
2023-06-30T06:28:11.314Z,64.00
2023-06-30T06:29:11.317Z,64.60
2023-06-30T06:30:11.293Z,65.26
2023-06-30T06:31:11.345Z,66.34
2023-06-30T06:32:11.290Z,67.52
2023-06-30T06:33:11.293Z,67.16
2023-06-30T06:34:11.268Z,66.73
2023-06-30T06:35:11.263Z,66.59
2023-06-30T06:36:11.254Z,63.83
2023-06-30T06:37:11.271Z,63.09
2023-06-30T06:38:11.253Z,64.71
2023-06-30T06:39:11.229Z,64.92
2023-06-30T06:40:11.231Z,64.34
2023-06-30T06:41:11.218Z,65.95
2023-06-30T06:42:11.197Z,64.31
2023-06-30T06:43:11.205Z,64.51
2023-06-30T06:44:11.751Z,64.80
2023-06-30T06:45:12.192Z,63.99
2023-06-30T06:46:11.203Z,64.34
2023-06-30T06:47:11.197Z,64.16
2023-06-30T06:48:11.155Z,62.75
2023-06-30T06:49:11.171Z,65.69
2023-06-30T06:50:11.141Z,62.82
2023-06-30T06:51:11.126Z,65.04
2023-06-30T06:52:11.128Z,62.53
2023-06-30T06:53:11.133Z,64.39
2023-06-30T06:54:11.109Z,65.50
2023-06-30T06:55:11.128Z,65.50
2023-06-30T06:56:11.110Z,65.96
2023-06-30T06:57:11.104Z,65.65
2023-06-30T06:58:11.088Z,66.31
2023-06-30T06:59:11.067Z,66.64
2023-06-30T07:00:11.062Z,64.26
2023-06-30T07:01:12.065Z,64.38
2023-06-30T07:02:11.239Z,64.09
2023-06-30T07:03:11.085Z,64.63
2023-06-30T07:04:11.058Z,66.07
2023-06-30T07:05:11.022Z,66.68
2023-06-30T07:06:11.002Z,63.98
2023-06-30T07:07:11.056Z,62.33
2023-06-30T07:08:11.001Z,65.10
2023-06-30T07:09:10.989Z,64.71
2023-06-30T07:10:11.001Z,64.71
2023-06-30T07:11:10.969Z,64.89
2023-06-30T07:12:10.965Z,62.90
2023-06-30T07:13:10.949Z,62.86
2023-06-30T07:14:10.962Z,64.11
2023-06-30T07:15:10.940Z,63.33
2023-06-30T07:16:10.948Z,64.43
2023-06-30T07:17:10.928Z,65.31
2023-06-30T07:18:11.107Z,66.89
2023-06-30T07:19:10.910Z,64.27
2023-06-30T07:20:10.915Z,64.36
2023-06-30T07:21:10.878Z,65.84
2023-06-30T07:22:10.884Z,65.36
2023-06-30T07:23:10.875Z,65.35
2023-06-30T07:24:10.869Z,65.64
2023-06-30T07:25:10.848Z,67.55
2023-06-30T07:26:10.862Z,66.92
2023-06-30T07:27:10.908Z,65.03
2023-06-30T07:28:10.849Z,64.99
2023-06-30T07:29:10.824Z,65.94
2023-06-30T07:30:10.827Z,64.93
2023-06-30T07:31:10.900Z,64.17
2023-06-30T07:32:11.701Z,64.26
2023-06-30T07:33:10.795Z,65.00
2023-06-30T07:34:10.790Z,66.01
2023-06-30T07:35:10.788Z,65.30
2023-06-30T07:36:10.780Z,67.16
2023-06-30T07:37:10.748Z,65.12
2023-06-30T07:38:10.754Z,64.20
2023-06-30T07:39:10.737Z,63.01
2023-06-30T07:40:16.429Z,64.09
2023-06-30T07:41:12.977Z,66.85
2023-06-30T07:42:10.719Z,64.61
2023-06-30T07:43:10.709Z,64.39
2023-06-30T07:44:10.709Z,64.99
2023-06-30T07:45:10.729Z,65.26
2023-06-30T07:46:10.709Z,64.70
2023-06-30T07:47:10.673Z,65.66
2023-06-30T07:48:10.815Z,63.28
2023-06-30T07:49:10.668Z,65.39
2023-06-30T07:50:10.646Z,65.81
2023-06-30T07:51:10.655Z,65.11
2023-06-30T07:52:10.637Z,64.12
2023-06-30T07:53:10.619Z,65.32
2023-06-30T07:54:10.624Z,66.81
2023-06-30T07:55:10.606Z,66.54
2023-06-30T07:56:10.607Z,67.47
2023-06-30T07:57:10.597Z,68.29
2023-06-30T07:58:10.587Z,65.53
2023-06-30T07:59:10.618Z,63.92
2023-06-30T08:00:10.567Z,65.18
2023-06-30T08:01:10.633Z,65.29
2023-06-30T08:02:10.548Z,64.00
2023-06-30T08:03:11.351Z,66.86
2023-06-30T08:04:10.729Z,65.29
2023-06-30T08:05:10.615Z,64.99
2023-06-30T08:06:10.629Z,63.58
2023-06-30T08:07:10.578Z,66.19
2023-06-30T08:08:10.515Z,64.21
2023-06-30T08:09:10.502Z,65.07
2023-06-30T08:10:10.499Z,65.14
2023-06-30T08:11:11.212Z,66.80
2023-06-30T08:12:10.483Z,67.19
2023-06-30T08:13:10.479Z,65.29
2023-06-30T08:14:10.510Z,66.56
2023-06-30T08:15:10.488Z,69.21
2023-06-30T08:16:10.534Z,64.27
2023-06-30T08:17:10.443Z,63.63
2023-06-30T08:18:11.102Z,63.44
2023-06-30T08:19:21.696Z,65.26
2023-06-30T08:20:11.484Z,65.22
2023-06-30T08:21:11.204Z,64.74
2023-06-30T08:22:10.398Z,67.31
2023-06-30T08:23:11.389Z,65.62
2023-06-30T08:24:10.378Z,63.23
2023-06-30T08:25:10.369Z,66.40
2023-06-30T08:26:10.382Z,66.09
2023-06-30T08:27:10.359Z,67.42
2023-06-30T08:28:10.811Z,70.86
2023-06-30T08:29:10.376Z,68.11
2023-06-30T08:30:10.372Z,65.24
2023-06-30T08:31:10.402Z,66.33
2023-06-30T08:32:10.318Z,67.76
2023-06-30T08:33:10.371Z,65.92
2023-06-30T08:34:10.286Z,64.54
2023-06-30T08:35:10.347Z,66.19
2023-06-30T08:36:10.323Z,65.82
2023-06-30T08:37:10.301Z,67.47
2023-06-30T08:38:10.284Z,71.18
2023-06-30T08:39:10.249Z,64.52
2023-06-30T08:40:10.244Z,65.34
2023-06-30T08:41:10.245Z,65.89
2023-06-30T08:42:10.260Z,64.19
2023-06-30T08:43:10.233Z,66.04
2023-06-30T08:44:10.251Z,67.20
2023-06-30T08:45:10.203Z,66.68
2023-06-30T08:46:10.758Z,66.95
2023-06-30T08:47:10.200Z,64.60
2023-06-30T08:48:10.267Z,66.21
2023-06-30T08:49:10.195Z,64.27
2023-06-30T08:50:10.191Z,67.05
2023-06-30T08:51:10.162Z,65.98
2023-06-30T08:52:10.157Z,65.20
2023-06-30T08:53:10.139Z,67.02
2023-06-30T08:54:11.744Z,67.08
2023-06-30T08:55:10.128Z,68.58
2023-06-30T08:56:10.118Z,67.36
2023-06-30T08:57:10.889Z,65.79
2023-06-30T08:58:21.040Z,67.53
2023-06-30T08:59:12.114Z,66.58
2023-06-30T09:00:10.093Z,67.22
2023-06-30T09:01:10.177Z,64.93
2023-06-30T09:02:10.140Z,65.61
2023-06-30T09:03:10.229Z,67.81
2023-06-30T09:04:10.281Z,64.76
2023-06-30T09:05:10.111Z,66.36
2023-06-30T09:06:10.083Z,66.31
2023-06-30T09:07:10.128Z,64.00
2023-06-30T09:08:10.032Z,65.14
2023-06-30T09:09:10.029Z,65.81
2023-06-30T09:10:10.059Z,65.04
2023-06-30T09:11:10.014Z,64.04
2023-06-30T09:12:10.017Z,66.40
2023-06-30T09:13:10.002Z,66.72
2023-06-30T09:14:10.016Z,66.07
2023-06-30T09:15:09.983Z,64.67
2023-06-30T09:16:10.022Z,62.43
2023-06-30T09:17:09.972Z,67.92
2023-06-30T09:18:09.987Z,65.69
2023-06-30T09:19:09.964Z,69.34
2023-06-30T09:20:09.934Z,68.74
2023-06-30T09:21:09.935Z,68.09
2023-06-30T09:22:53.908Z,65.23
2023-06-30T09:23:10.907Z,66.89
2023-06-30T09:24:09.915Z,67.93
2023-06-30T09:25:09.893Z,68.39
2023-06-30T09:26:09.961Z,69.50
2023-06-30T09:27:09.881Z,67.87
2023-06-30T09:28:09.902Z,69.06
2023-06-30T09:29:09.883Z,69.76
2023-06-30T09:30:10.747Z,68.55
2023-06-30T09:31:09.854Z,68.31
2023-06-30T09:32:10.556Z,69.35
2023-06-30T09:33:11.041Z,68.56
2023-06-30T09:34:09.949Z,67.70
2023-06-30T09:35:09.832Z,68.36
2023-06-30T09:36:09.808Z,69.65
2023-06-30T09:37:12.340Z,67.14
2023-06-30T09:38:10.828Z,68.41
2023-06-30T09:39:09.802Z,67.49
2023-06-30T09:40:09.784Z,68.18
2023-06-30T09:41:09.780Z,68.02
2023-06-30T09:42:09.762Z,69.37
2023-06-30T09:43:09.743Z,68.74
2023-06-30T09:44:09.753Z,67.82
2023-06-30T09:45:09.740Z,66.39
2023-06-30T09:46:10.300Z,67.31
2023-06-30T09:47:09.724Z,68.41
2023-06-30T09:48:09.698Z,67.26
2023-06-30T09:49:09.730Z,70.32
2023-06-30T09:50:09.736Z,70.85
2023-06-30T09:51:09.753Z,70.29
2023-06-30T09:52:09.671Z,69.42
2023-06-30T09:53:09.692Z,70.50
2023-06-30T09:54:09.690Z,70.68
2023-06-30T09:55:09.642Z,69.04
2023-06-30T09:56:09.742Z,70.95
2023-06-30T09:57:09.646Z,68.29
2023-06-30T09:58:09.622Z,70.90
2023-06-30T09:59:09.615Z,70.94
2023-06-30T10:00:18.441Z,70.16
2023-06-30T10:01:11.627Z,70.53
2023-06-30T10:02:09.604Z,69.41
2023-06-30T10:03:09.792Z,69.79
2023-06-30T10:04:09.582Z,69.37
2023-06-30T10:05:09.564Z,69.08
2023-06-30T10:06:09.579Z,68.90
2023-06-30T10:07:09.612Z,70.44
2023-06-30T10:08:09.611Z,70.50
2023-06-30T10:09:09.550Z,72.76
2023-06-30T10:10:09.531Z,66.40
2023-06-30T10:11:09.585Z,69.05
2023-06-30T10:12:09.541Z,68.32
2023-06-30T10:13:09.595Z,66.90
2023-06-30T10:14:09.588Z,68.63
2023-06-30T10:15:09.501Z,68.97
2023-06-30T10:16:09.507Z,68.31
2023-06-30T10:17:09.489Z,68.73
2023-06-30T10:18:10.295Z,69.32
2023-06-30T10:19:09.481Z,69.06
2023-06-30T10:20:09.462Z,72.11
2023-06-30T10:21:09.484Z,68.52
2023-06-30T10:22:09.474Z,70.31
2023-06-30T10:23:09.511Z,68.44
2023-06-30T10:24:10.294Z,68.02
2023-06-30T10:25:09.428Z,69.42
2023-06-30T10:26:09.439Z,71.69
2023-06-30T10:27:09.414Z,69.72
2023-06-30T10:28:10.361Z,71.18
2023-06-30T10:29:09.423Z,69.97
2023-06-30T10:30:09.386Z,70.28
2023-06-30T10:31:11.362Z,71.03
2023-06-30T10:32:09.385Z,70.90
2023-06-30T10:33:11.337Z,69.33
2023-06-30T10:34:09.355Z,69.69
2023-06-30T10:35:09.335Z,72.56
2023-06-30T10:36:09.341Z,72.62
2023-06-30T10:37:09.341Z,71.42
2023-06-30T10:38:09.837Z,71.03
2023-06-30T10:39:09.312Z,69.82
2023-06-30T10:40:09.851Z,73.14
2023-06-30T10:41:09.296Z,73.29
2023-06-30T10:42:09.312Z,72.65
2023-06-30T10:43:09.284Z,72.81
2023-06-30T10:44:09.295Z,72.83
2023-06-30T10:45:09.277Z,72.45
2023-06-30T10:46:12.475Z,72.53
2023-06-30T10:47:10.302Z,73.55
2023-06-30T10:48:09.345Z,70.89
2023-06-30T10:49:09.235Z,69.65
2023-06-30T10:50:09.232Z,72.38
2023-06-30T10:51:09.241Z,69.61
2023-06-30T10:52:09.265Z,70.28
2023-06-30T10:53:09.323Z,71.89
2023-06-30T10:54:09.193Z,68.81
2023-06-30T10:55:09.211Z,70.50
2023-06-30T10:56:09.172Z,71.84
2023-06-30T10:57:09.178Z,73.29
2023-06-30T10:58:09.928Z,70.70
2023-06-30T10:59:09.365Z,70.66
2023-06-30T11:00:10.873Z,71.78
2023-06-30T11:01:10.796Z,70.79
2023-06-30T11:02:09.129Z,73.79
2023-06-30T11:03:09.391Z,73.59
2023-06-30T11:04:09.310Z,70.61
2023-06-30T11:05:09.160Z,69.84
2023-06-30T21:21:29.961Z,62.74
2023-06-30T21:22:29.964Z,61.34
2023-06-30T21:23:29.952Z,58.70
2023-06-30T21:24:29.939Z,61.50
2023-06-30T21:25:29.930Z,62.22
2023-06-30T21:26:29.926Z,59.01
2023-06-30T21:27:29.928Z,63.73
2023-06-30T21:28:29.910Z,64.42
2023-06-30T21:29:29.916Z,61.81
2023-06-30T21:30:29.887Z,62.03
2023-06-30T21:31:29.893Z,61.70
2023-06-30T21:32:29.917Z,59.21
2023-06-30T21:33:29.881Z,65.13
2023-06-30T21:34:29.859Z,61.47
2023-06-30T21:35:29.859Z,55.82
2023-06-30T21:36:29.881Z,60.93
2023-06-30T21:37:30.740Z,61.80
2023-06-30T21:38:29.834Z,57.12
2023-06-30T21:39:29.836Z,56.72
2023-06-30T21:40:29.810Z,61.51
2023-06-30T21:41:29.795Z,59.04
2023-06-30T21:42:29.799Z,59.61
2023-06-30T21:43:29.795Z,58.29
2023-06-30T21:44:29.782Z,56.99
2023-06-30T21:45:29.774Z,57.17
2023-06-30T21:46:29.862Z,55.46
2023-06-30T21:47:29.775Z,64.88
2023-06-30T21:48:29.762Z,60.14
2023-06-30T21:49:29.744Z,57.23
2023-06-30T21:50:29.730Z,57.83
2023-06-30T21:51:29.721Z,57.42
2023-06-30T21:52:29.735Z,60.94
2023-06-30T21:53:30.238Z,55.18
2023-06-30T21:54:41.183Z,58.41
2023-06-30T21:55:31.815Z,60.81
2023-06-30T21:56:30.770Z,57.69
2023-06-30T21:57:30.822Z,49.25
2023-06-30T21:58:30.778Z,56.38
2023-06-30T21:59:30.737Z,61.37
2023-06-30T22:00:31.746Z,62.19
2023-06-30T22:01:39.837Z,60.27
2023-06-30T22:02:32.833Z,55.55
2023-06-30T22:03:31.533Z,55.29
2023-06-30T22:04:30.813Z,55.57
2023-06-30T22:05:30.717Z,61.62
2023-06-30T22:06:30.700Z,60.60
2023-06-30T22:07:30.699Z,61.03
2023-06-30T22:08:30.688Z,58.85
2023-06-30T22:09:30.688Z,58.91
2023-06-30T22:10:30.676Z,56.31
2023-06-30T22:11:30.657Z,61.59
2023-06-30T22:12:30.651Z,58.04
2023-06-30T22:13:31.336Z,60.41
2023-06-30T22:14:30.657Z,59.74
2023-06-30T22:15:30.633Z,55.25
2023-06-30T22:16:30.682Z,59.94
2023-06-30T22:17:30.776Z,55.10
2023-06-30T22:18:30.599Z,59.59
2023-06-30T22:19:30.605Z,59.38
2023-06-30T22:20:30.591Z,56.54
2023-06-30T22:21:30.596Z,58.11
2023-06-30T22:22:30.570Z,59.15
2023-06-30T22:23:30.583Z,54.50
2023-06-30T22:24:30.568Z,59.19
2023-06-30T22:25:30.568Z,57.69
2023-06-30T22:26:30.557Z,56.79
2023-06-30T22:27:30.544Z,57.68
2023-06-30T22:28:30.534Z,59.21
2023-06-30T22:29:30.582Z,61.70
2023-06-30T22:30:30.594Z,58.63
2023-06-30T22:31:30.517Z,59.18
2023-06-30T22:32:30.526Z,57.08
2023-06-30T22:33:30.494Z,56.26
2023-06-30T22:34:30.486Z,61.56
2023-06-30T22:35:30.482Z,57.29
2023-06-30T22:36:30.484Z,60.22
2023-06-30T22:37:30.474Z,56.14
2023-06-30T22:38:30.445Z,57.95
2023-06-30T22:39:30.456Z,59.98
2023-06-30T22:40:30.440Z,57.66
2023-06-30T22:41:30.426Z,57.03
2023-06-30T22:42:30.414Z,63.26
2023-06-30T22:43:30.415Z,61.76
2023-06-30T22:44:30.387Z,61.67
2023-06-30T22:45:30.409Z,63.44
2023-06-30T22:46:30.414Z,61.57
2023-06-30T22:47:31.314Z,60.29
2023-06-30T22:48:30.374Z,62.89
2023-06-30T22:49:30.353Z,54.26
2023-06-30T22:50:30.346Z,57.36
2023-06-30T22:51:30.370Z,60.50
2023-06-30T22:52:30.356Z,56.72
2023-06-30T22:53:30.343Z,59.99
2023-06-30T22:54:30.319Z,57.19
2023-06-30T22:55:30.312Z,56.37
2023-06-30T22:56:30.309Z,57.84
2023-06-30T22:57:30.300Z,60.94
2023-06-30T22:58:30.289Z,55.14
2023-06-30T22:59:30.288Z,59.38
2023-06-30T23:00:30.273Z,60.63
2023-06-30T23:01:30.283Z,58.98
2023-06-30T23:02:30.287Z,58.12
2023-06-30T23:03:30.389Z,56.26
2023-06-30T23:04:30.291Z,60.34
2023-06-30T23:05:30.230Z,56.18
2023-06-30T23:06:30.220Z,60.67
2023-06-30T23:07:30.203Z,54.94
2023-06-30T23:08:30.200Z,56.93
2023-06-30T23:09:30.219Z,58.30